Lobachsville, Pennsylvania
Current Conditions -  °F | °C
As of 1:54 PM on Friday 28 Nov 2014 (Local Time) from KRDG Reporting Station
Overcast Overcast  
Wind Chill: 25°   Ceiling: 4300
Heat Index: 34°   Visibility: 10mi
Dew Point: 18°   Wind: 12mph
Humidity: 52%   Direction: 300°WNW
Pressure: 30.21"   Gusts: NA
Location:  40.3836°N, 75.7884°W
Report Text: KRDG 281854Z 30010KT 10SM BKN043 OVC050 01/M08 A3021 RMK AO2 SLP239 T00111078
Loading
Personal Weather Stations






























Interactive Weather Map New forecast layout! Learn more

10-Day Weather Forecast

Advertisements
Track Severe Weather on mobile